Time;durP1;ratioP1;P1;durP2;ratioP2;P2;SDS_P1;SDS_P2;PMS_P1;PMS_P2;Temp;Humidity;BMP_temperature;BMP_pressure;BME280_temperature;BME280_humidity;BME280_pressure;Samples;Min_cycle;Max_cycle;Signal;HPM_P1;HPM_P2
2023/12/25 00:00:21;;;;;;;1.38;0.63;;;21.10;50.00;;;;;;5059182;28;20119;-52
2023/12/25 00:02:47;;;;;;;1.15;0.43;;;21.10;50.00;;;;;;5057135;28;20032;-52
2023/12/25 00:05:13;;;;;;;2.60;1.00;;;21.10;50.00;;;;;;5055749;28;20029;-50
2023/12/25 00:07:39;;;;;;;0.90;0.40;;;21.10;50.00;;;;;;5055051;28;20143;-50
2023/12/25 00:10:05;;;;;;;1.40;0.50;;;21.10;50.00;;;;;;5057003;28;20036;-52
2023/12/25 00:12:31;;;;;;;1.73;0.70;;;21.10;50.60;;;;;;5042873;28;20061;-49
2023/12/25 00:14:56;;;;;;;1.75;0.50;;;21.10;50.00;;;;;;5055675;28;20071;-48
2023/12/25 00:17:22;;;;;;;0.98;0.40;;;21.10;50.00;;;;;;5061675;28;20085;-53
2023/12/25 00:19:48;;;;;;;1.10;0.63;;;21.10;50.00;;;;;;5058860;28;20423;-50
2023/12/25 00:22:14;;;;;;;0.98;0.40;;;21.10;50.10;;;;;;5064881;28;20056;-51
2023/12/25 00:24:40;;;;;;;3.17;0.60;;;21.10;50.10;;;;;;5064000;28;20025;-51
2023/12/25 00:27:07;;;;;;;0.50;0.30;;;21.00;50.70;;;;;;5055279;28;20025;-56
2023/12/25 00:29:33;;;;;;;1.10;0.60;;;21.10;50.10;;;;;;5064154;28;20070;-54
2023/12/25 00:31:58;;;;;;;1.63;0.52;;;21.10;50.10;;;;;;5042582;28;20069;-50
2023/12/25 00:34:24;;;;;;;1.95;0.70;;;21.00;50.10;;;;;;5058120;28;20033;-53
2023/12/25 00:36:50;;;;;;;1.08;0.50;;;21.10;50.20;;;;;;5056592;28;20055;-51
2023/12/25 00:39:16;;;;;;;1.73;0.50;;;21.10;50.20;;;;;;5060626;28;20059;-52
2023/12/25 00:41:42;;;;;;;1.42;0.52;;;21.00;50.10;;;;;;5042568;28;20433;-52
2023/12/25 00:44:08;;;;;;;1.17;0.60;;;21.00;50.70;;;;;;5055272;28;20035;-51
2023/12/25 00:46:33;;;;;;;2.00;0.60;;;21.00;50.10;;;;;;5059588;28;20021;-52
2023/12/25 00:48:59;;;;;;;1.45;0.65;;;21.10;50.20;;;;;;5056958;28;20074;-54
2023/12/25 00:51:25;;;;;;;1.15;0.50;;;21.00;50.20;;;;;;5060121;28;20039;-53
2023/12/25 00:53:51;;;;;;;2.70;0.93;;;21.00;50.20;;;;;;5040582;28;20411;-54
2023/12/25 00:56:17;;;;;;;1.67;0.60;;;21.00;50.20;;;;;;5056668;28;20037;-55
2023/12/25 00:58:44;;;;;;;1.52;0.45;;;21.00;50.20;;;;;;5064978;28;20043;-51
2023/12/25 01:01:10;;;;;;;1.60;0.55;;;21.00;50.20;;;;;;5044717;28;20451;-54
2023/12/25 01:03:36;;;;;;;2.08;0.60;;;21.00;50.20;;;;;;5038760;28;20067;-52
2023/12/25 01:06:03;;;;;;;1.50;0.50;;;21.00;50.20;;;;;;5059091;28;20029;-50
2023/12/25 01:08:29;;;;;;;1.45;0.50;;;21.00;50.30;;;;;;5040253;28;20029;-50
2023/12/25 01:10:55;;;;;;;2.40;0.60;;;21.00;50.30;;;;;;5043353;28;20036;-54
2023/12/25 01:13:21;;;;;;;2.03;0.75;;;21.00;50.30;;;;;;5041502;28;20029;-52
2023/12/25 01:15:46;;;;;;;1.92;0.60;;;21.00;50.30;;;;;;5060222;28;20447;-52
2023/12/25 01:18:12;;;;;;;2.40;0.70;;;21.00;50.40;;;;;;5056954;28;20063;-51
2023/12/25 01:20:40;;;;;;;1.50;0.50;;;20.90;50.40;;;;;;5061707;28;20036;-53
2023/12/25 01:23:06;;;;;;;1.67;0.60;;;20.90;51.00;;;;;;5043703;28;20050;-55
2023/12/25 01:25:32;;;;;;;2.67;0.60;;;21.00;50.50;;;;;;5044667;28;20125;-52
2023/12/25 01:27:59;;;;;;;0.65;0.50;;;20.90;50.40;;;;;;5060163;28;20048;-50
2023/12/25 01:30:25;;;;;;;1.50;0.43;;;20.90;50.40;;;;;;5056891;28;20114;-53
2023/12/25 01:32:51;;;;;;;0.77;0.40;;;20.90;50.40;;;;;;5045620;28;20033;-56
2023/12/25 01:35:17;;;;;;;1.00;0.40;;;20.90;50.50;;;;;;5063652;28;20028;-52
2023/12/25 01:37:42;;;;;;;1.10;0.45;;;20.90;50.50;;;;;;5058661;28;20035;-56
2023/12/25 01:40:09;;;;;;;0.90;0.30;;;20.90;50.50;;;;;;5043201;28;20052;-54
2023/12/25 01:42:35;;;;;;;1.23;0.40;;;20.90;50.50;;;;;;5044513;28;20040;-56
2023/12/25 01:45:01;;;;;;;0.55;0.40;;;20.90;50.50;;;;;;5062214;28;20120;-53
2023/12/25 01:47:26;;;;;;;1.80;0.50;;;20.90;50.50;;;;;;5040482;28;20488;-53
2023/12/25 01:49:52;;;;;;;1.95;0.63;;;20.90;50.50;;;;;;5037843;28;20028;-53
2023/12/25 01:52:19;;;;;;;0.80;0.50;;;20.90;50.50;;;;;;5058498;28;20091;-49
2023/12/25 01:54:45;;;;;;;1.52;0.55;;;20.90;50.50;;;;;;5057641;28;20083;-51
2023/12/25 01:57:12;;;;;;;0.85;0.40;;;20.90;50.50;;;;;;5037981;28;20036;-52
2023/12/25 01:59:38;;;;;;;1.70;0.50;;;20.90;50.60;;;;;;5043163;28;20116;-51
2023/12/25 02:02:04;;;;;;;1.58;0.60;;;20.80;50.50;;;;;;5038989;28;20063;-51
2023/12/25 02:04:30;;;;;;;0.85;0.52;;;20.80;50.50;;;;;;5055987;28;20053;-52
2023/12/25 02:06:57;;;;;;;0.90;0.40;;;20.90;50.50;;;;;;5060571;28;20032;-52
2023/12/25 02:09:23;;;;;;;2.10;0.63;;;20.90;50.40;;;;;;5042334;28;20367;-54
2023/12/25 02:11:49;;;;;;;1.35;0.50;;;20.90;50.40;;;;;;5064473;28;20021;-52
2023/12/25 02:14:15;;;;;;;0.80;0.30;;;20.90;50.30;;;;;;5061404;28;20033;-51
2023/12/25 02:16:41;;;;;;;1.35;0.47;;;20.80;50.20;;;;;;5056729;28;20108;-54
2023/12/25 02:19:36;;;;;;;2.15;0.55;;;20.80;50.20;;;;;;5041502;28;20032;-52
2023/12/25 02:22:02;;;;;;;1.55;0.35;;;20.80;50.00;;;;;;5045653;28;20531;-54
2023/12/25 02:24:33;;;;;;;0.73;0.40;;;20.80;50.00;;;;;;5047462;28;20043;-51
2023/12/25 02:26:59;;;;;;;0.60;0.30;;;20.80;49.90;;;;;;5044190;28;20356;-53
2023/12/25 02:29:25;;;;;;;0.68;0.20;;;20.80;49.80;;;;;;5045794;28;20032;-53
2023/12/25 02:31:51;;;;;;;1.15;0.30;;;20.80;49.70;;;;;;5042286;28;20032;-51
2023/12/25 02:34:17;;;;;;;0.22;0.22;;;20.80;49.70;;;;;;5060245;28;20025;-53
2023/12/25 02:36:43;;;;;;;0.52;0.25;;;20.80;49.60;;;;;;5043955;28;20054;-53
2023/12/25 02:39:09;;;;;;;0.30;0.20;;;20.80;49.60;;;;;;5066026;28;20508;-55
2023/12/25 02:41:35;;;;;;;0.30;0.20;;;20.80;49.60;;;;;;5038062;28;20033;-53
2023/12/25 02:44:02;;;;;;;0.25;0.20;;;20.80;49.60;;;;;;5043729;28;20043;-52
2023/12/25 02:46:27;;;;;;;0.50;0.30;;;20.80;49.60;;;;;;5037526;28;20028;-49
2023/12/25 02:48:53;;;;;;;0.52;0.22;;;20.80;49.60;;;;;;5059013;28;20025;-50
2023/12/25 02:51:19;;;;;;;1.35;0.50;;;20.70;49.50;;;;;;5063493;28;20029;-50
2023/12/25 02:53:45;;;;;;;1.05;0.50;;;20.70;49.50;;;;;;5047454;28;20123;-52
2023/12/25 02:56:11;;;;;;;1.33;0.32;;;20.70;49.50;;;;;;5058982;28;20024;-55
2023/12/25 02:58:36;;;;;;;1.40;0.63;;;20.70;49.60;;;;;;5060850;28;20036;-50
2023/12/25 03:01:02;;;;;;;1.65;0.50;;;20.70;49.60;;;;;;5064875;28;20029;-52
2023/12/25 03:03:28;;;;;;;1.17;0.50;;;20.70;49.70;;;;;;5065115;28;20032;-52
2023/12/25 03:05:54;;;;;;;1.15;0.52;;;20.70;49.70;;;;;;5043705;28;20266;-53
2023/12/25 03:08:20;;;;;;;1.73;0.63;;;20.70;49.80;;;;;;5065663;28;20021;-55
2023/12/25 03:10:46;;;;;;;1.02;0.50;;;20.70;49.90;;;;;;5048404;28;20631;-52
2023/12/25 03:13:12;;;;;;;0.65;0.45;;;20.70;49.90;;;;;;5058797;28;20029;-53
2023/12/25 03:15:38;;;;;;;2.15;0.70;;;20.70;50.00;;;;;;5049512;28;20028;-53
2023/12/25 03:18:04;;;;;;;2.38;0.52;;;20.70;50.00;;;;;;5047489;28;20024;-52
2023/12/25 03:20:30;;;;;;;1.48;0.43;;;20.70;50.10;;;;;;5058810;28;20029;-49
2023/12/25 03:22:56;;;;;;;1.45;0.57;;;20.70;50.20;;;;;;5045058;28;20132;-52
2023/12/25 03:25:22;;;;;;;1.65;0.60;;;20.70;50.20;;;;;;5021066;28;20087;-52
2023/12/25 03:27:49;;;;;;;0.82;0.40;;;20.70;50.20;;;;;;5043970;28;20041;-51
2023/12/25 03:30:15;;;;;;;2.28;0.70;;;20.60;50.20;;;;;;5030793;28;20060;-47
2023/12/25 03:32:41;;;;;;;1.92;0.50;;;20.70;50.30;;;;;;5065734;28;20021;-52
2023/12/25 03:35:07;;;;;;;2.53;0.77;;;20.70;50.30;;;;;;5063563;28;20039;-53
2023/12/25 03:37:33;;;;;;;2.08;0.90;;;20.70;50.40;;;;;;5040729;28;20032;-54
2023/12/25 03:39:59;;;;;;;1.00;0.43;;;20.70;50.40;;;;;;5044514;28;20036;-52
2023/12/25 03:42:25;;;;;;;0.88;0.45;;;20.60;50.40;;;;;;5041215;28;20067;-50
2023/12/25 03:44:50;;;;;;;2.47;0.57;;;20.60;50.40;;;;;;5041431;28;20025;-54
2023/12/25 03:47:17;;;;;;;1.67;0.43;;;20.60;50.50;;;;;;5064227;28;20394;-53
2023/12/25 03:49:43;;;;;;;1.35;0.55;;;20.60;50.50;;;;;;5030068;28;20021;-50
2023/12/25 03:52:10;;;;;;;2.17;0.65;;;20.60;50.50;;;;;;5058221;28;20368;-54
2023/12/25 03:54:35;;;;;;;2.17;0.60;;;20.60;50.50;;;;;;5043293;28;20016;-50
2023/12/25 03:57:01;;;;;;;2.08;0.80;;;20.60;50.50;;;;;;5061868;28;20325;-48
2023/12/25 03:59:27;;;;;;;1.45;0.40;;;20.60;50.50;;;;;;5064847;28;20356;-52
2023/12/25 04:01:53;;;;;;;2.08;0.90;;;20.60;50.50;;;;;;5040018;28;20056;-50
2023/12/25 04:04:19;;;;;;;2.70;0.75;;;20.60;50.80;;;;;;5059569;28;20407;-54
2023/12/25 04:06:45;;;;;;;1.83;0.52;;;20.60;50.50;;;;;;5041371;28;20029;-52
2023/12/25 04:09:11;;;;;;;3.25;0.90;;;20.60;50.50;;;;;;5046009;28;20452;-51
2023/12/25 04:11:37;;;;;;;2.05;0.60;;;20.60;50.50;;;;;;5046373;28;21261;-54
2023/12/25 04:14:04;;;;;;;3.50;0.70;;;20.60;50.60;;;;;;5063268;28;20104;-50
2023/12/25 04:16:30;;;;;;;1.25;0.47;;;20.60;50.50;;;;;;5065051;28;20096;-53
2023/12/25 04:18:56;;;;;;;1.83;0.50;;;20.60;50.50;;;;;;5037698;28;20100;-49
2023/12/25 04:21:27;;;;;;;2.00;0.60;;;20.60;50.50;;;;;;5040625;28;20025;-49
2023/12/25 04:23:54;;;;;;;2.05;0.73;;;20.60;50.50;;;;;;5041106;28;20040;-50
2023/12/25 04:26:21;;;;;;;1.48;0.60;;;20.60;50.50;;;;;;5042390;28;20029;-53
2023/12/25 04:28:48;;;;;;;2.65;1.20;;;20.60;50.50;;;;;;5049335;28;20038;-55
2023/12/25 04:31:15;;;;;;;2.78;0.70;;;20.60;50.50;;;;;;5040352;28;20112;-53
2023/12/25 04:33:41;;;;;;;2.13;0.68;;;20.60;50.50;;;;;;5038081;28;20064;-53
2023/12/25 04:36:08;;;;;;;1.98;0.68;;;20.60;50.60;;;;;;5022894;28;20044;-51
2023/12/25 04:38:34;;;;;;;1.80;0.70;;;20.60;50.50;;;;;;5063650;28;20053;-56
2023/12/25 04:41:00;;;;;;;1.92;0.75;;;20.60;50.50;;;;;;5045917;28;20111;-51
2023/12/25 04:43:26;;;;;;;1.92;0.55;;;20.50;50.50;;;;;;5046079;28;20025;-52
2023/12/25 04:45:52;;;;;;;2.20;0.75;;;20.50;50.50;;;;;;5058153;28;20016;-50
2023/12/25 04:48:18;;;;;;;1.50;0.60;;;20.60;50.50;;;;;;5044974;28;20037;-51
2023/12/25 04:50:44;;;;;;;1.23;0.40;;;20.50;50.50;;;;;;5041835;28;20079;-53
2023/12/25 04:53:10;;;;;;;2.10;0.60;;;20.60;50.50;;;;;;5041663;28;20459;-53
2023/12/25 04:55:40;;;;;;;1.80;0.63;;;20.50;50.50;;;;;;5040617;28;20320;-50
2023/12/25 04:58:06;;;;;;;0.80;0.50;;;20.60;50.60;;;;;;5044092;28;20036;-50
2023/12/25 05:00:33;;;;;;;0.77;0.40;;;20.50;50.50;;;;;;5034459;28;20053;-51
2023/12/25 05:02:59;;;;;;;2.53;0.80;;;20.50;50.50;;;;;;5058231;28;20040;-51
2023/12/25 05:05:25;;;;;;;1.23;0.40;;;20.50;50.50;;;;;;5036580;28;20033;-54
2023/12/25 05:07:52;;;;;;;1.58;0.88;;;20.50;50.60;;;;;;5040616;28;20029;-52
2023/12/25 05:10:18;;;;;;;1.65;0.65;;;20.50;50.60;;;;;;5054072;28;20039;-54
2023/12/25 05:12:44;;;;;;;2.88;0.85;;;20.50;50.60;;;;;;5043540;28;20021;-51
2023/12/25 05:15:11;;;;;;;1.92;0.60;;;20.50;50.60;;;;;;5039917;28;20488;-52
2023/12/25 05:17:39;;;;;;;1.38;0.52;;;20.50;50.60;;;;;;5021735;28;20063;-49
2023/12/25 05:20:05;;;;;;;2.22;0.65;;;20.50;50.60;;;;;;5063484;28;20059;-48
2023/12/25 05:22:31;;;;;;;2.78;0.60;;;20.50;50.60;;;;;;5041664;28;20024;-49
2023/12/25 05:24:57;;;;;;;2.63;0.85;;;20.50;50.60;;;;;;5059666;28;20466;-53
2023/12/25 05:27:23;;;;;;;2.28;0.60;;;20.50;50.60;;;;;;5056918;28;20024;-50
2023/12/25 05:29:48;;;;;;;1.42;0.50;;;20.50;50.60;;;;;;5055653;28;20035;-49
2023/12/25 05:32:14;;;;;;;2.05;0.73;;;20.50;50.60;;;;;;5056237;28;20062;-52
2023/12/25 05:34:40;;;;;;;1.25;0.68;;;20.50;50.60;;;;;;5043621;28;20029;-52
2023/12/25 05:37:06;;;;;;;1.83;0.47;;;20.40;50.60;;;;;;5056738;28;20021;-53
2023/12/25 05:39:32;;;;;;;1.25;0.60;;;20.50;50.70;;;;;;5063273;28;20432;-49
2023/12/25 05:41:57;;;;;;;1.40;0.50;;;20.40;50.60;;;;;;5058791;28;20111;-54
2023/12/25 05:44:23;;;;;;;1.42;0.60;;;20.40;50.60;;;;;;5059867;28;20440;-51
2023/12/25 05:46:49;;;;;;;1.33;0.47;;;20.40;50.60;;;;;;5061308;28;20352;-53
2023/12/25 05:49:15;;;;;;;1.23;0.47;;;20.40;50.60;;;;;;5043969;28;20033;-52
2023/12/25 05:51:41;;;;;;;1.40;0.52;;;20.40;50.50;;;;;;5064081;28;20100;-51
2023/12/25 05:54:07;;;;;;;0.65;0.32;;;20.50;50.60;;;;;;5064564;28;20039;-53
2023/12/25 05:56:32;;;;;;;1.65;0.50;;;20.40;50.50;;;;;;5063391;28;20203;-53
2023/12/25 05:58:59;;;;;;;1.48;0.60;;;20.40;50.50;;;;;;5061042;28;20029;-54
2023/12/25 06:01:25;;;;;;;0.90;0.32;;;20.50;50.60;;;;;;5059428;28;20035;-51
2023/12/25 06:03:51;;;;;;;1.48;0.55;;;20.40;50.50;;;;;;5062958;28;20498;-51
2023/12/25 06:06:17;;;;;;;1.73;0.47;;;20.40;50.60;;;;;;5067694;28;20028;-56
2023/12/25 06:08:43;;;;;;;1.08;0.40;;;20.40;50.60;;;;;;5043891;28;20029;-50
2023/12/25 06:11:09;;;;;;;1.15;0.60;;;20.40;50.60;;;;;;5043648;28;20112;-52
2023/12/25 06:13:35;;;;;;;1.50;0.60;;;20.50;50.80;;;;;;5059037;28;20104;-52
2023/12/25 06:16:01;;;;;;;0.63;0.40;;;20.40;50.70;;;;;;5063250;28;20435;-51
2023/12/25 06:18:27;;;;;;;1.33;0.50;;;20.50;50.80;;;;;;5059200;28;20055;-55
2023/12/25 06:20:53;;;;;;;1.27;0.55;;;20.40;50.80;;;;;;5061323;28;20028;-51
2023/12/25 06:23:19;;;;;;;1.92;0.63;;;20.40;50.80;;;;;;5061426;28;20040;-53
2023/12/25 06:25:44;;;;;;;0.82;0.43;;;20.40;50.80;;;;;;5063317;28;20073;-48
2023/12/25 06:28:10;;;;;;;0.65;0.32;;;20.40;50.90;;;;;;5061100;28;20376;-51
2023/12/25 06:30:36;;;;;;;1.13;0.50;;;20.40;50.90;;;;;;5062379;28;20163;-52
2023/12/25 06:33:02;;;;;;;1.15;0.50;;;20.40;50.90;;;;;;5046319;28;20025;-54
2023/12/25 06:35:28;;;;;;;1.55;0.45;;;20.40;50.90;;;;;;5062545;28;20041;-53
2023/12/25 06:37:54;;;;;;;1.05;0.47;;;20.40;51.00;;;;;;5057497;28;20041;-52
2023/12/25 06:40:20;;;;;;;1.27;0.40;;;20.40;51.00;;;;;;5062982;28;20032;-54
2023/12/25 06:42:45;;;;;;;1.38;0.43;;;20.40;51.00;;;;;;5061376;28;20344;-49
2023/12/25 06:45:11;;;;;;;2.03;0.52;;;20.40;51.10;;;;;;5060702;28;20035;-52
2023/12/25 06:47:37;;;;;;;1.67;0.60;;;20.40;51.10;;;;;;5062632;28;20595;-53
2023/12/25 06:50:03;;;;;;;1.30;0.50;;;20.40;51.10;;;;;;5063817;28;20351;-50
2023/12/25 06:52:29;;;;;;;0.95;0.43;;;20.40;51.10;;;;;;5060313;28;20047;-51
2023/12/25 06:54:54;;;;;;;1.30;0.50;;;20.40;51.10;;;;;;5044679;28;20090;-49
2023/12/25 06:57:20;;;;;;;2.05;0.40;;;20.40;51.10;;;;;;5046104;28;20025;-54
2023/12/25 06:59:46;;;;;;;1.27;0.47;;;20.40;51.10;;;;;;5056715;28;20025;-52
2023/12/25 07:02:12;;;;;;;0.93;0.40;;;20.40;51.10;;;;;;5057566;28;20041;-51
2023/12/25 07:04:38;;;;;;;1.38;0.45;;;20.40;51.10;;;;;;5060610;28;20047;-55
2023/12/25 07:07:04;;;;;;;0.90;0.38;;;20.40;51.10;;;;;;5060160;28;20059;-50
2023/12/25 07:09:30;;;;;;;0.43;0.20;;;20.40;51.70;;;;;;5043602;28;20061;-50
2023/12/25 07:11:56;;;;;;;0.57;0.40;;;20.40;51.10;;;;;;5057992;28;20024;-54
2023/12/25 07:14:22;;;;;;;2.15;0.60;;;20.30;51.00;;;;;;5059217;28;20074;-53
2023/12/25 07:16:49;;;;;;;1.40;0.32;;;20.40;51.00;;;;;;5057157;28;20030;-54
2023/12/25 07:19:14;;;;;;;0.32;0.30;;;20.30;50.90;;;;;;5058838;28;20591;-55
2023/12/25 07:21:41;;;;;;;0.77;0.40;;;20.30;50.90;;;;;;5059204;28;20111;-53
2023/12/25 07:24:07;;;;;;;0.88;0.30;;;20.30;50.90;;;;;;5058841;28;20116;-52
2023/12/25 07:26:33;;;;;;;0.82;0.20;;;20.30;50.80;;;;;;5059653;28;20123;-49
2023/12/25 07:28:58;;;;;;;0.52;0.30;;;20.30;50.80;;;;;;5060155;28;21664;-52
2023/12/25 07:31:24;;;;;;;1.67;0.50;;;20.30;50.80;;;;;;5040267;28;20033;-48
2023/12/25 07:33:51;;;;;;;0.68;0.20;;;20.30;50.80;;;;;;5062220;28;20107;-56
2023/12/25 07:36:17;;;;;;;0.63;0.30;;;20.30;50.70;;;;;;5025977;28;20036;-56
2023/12/25 07:38:43;;;;;;;1.30;0.30;;;20.30;50.70;;;;;;5056757;28;20357;-52
2023/12/25 07:41:10;;;;;;;1.13;0.40;;;20.30;50.70;;;;;;5056956;28;20029;-57
2023/12/25 07:43:36;;;;;;;0.60;0.20;;;20.30;50.60;;;;;;5061623;28;20083;-50
2023/12/25 07:46:05;;;;;;;0.57;0.35;;;20.30;50.60;;;;;;5056264;28;20360;-52
2023/12/25 07:48:31;;;;;;;0.60;0.30;;;20.30;50.60;;;;;;5062018;28;20380;-52
2023/12/25 07:50:57;;;;;;;0.50;0.30;;;20.30;50.60;;;;;;5058411;28;20025;-54
2023/12/25 07:53:23;;;;;;;0.38;0.30;;;20.30;50.60;;;;;;5058108;28;20031;-52
2023/12/25 07:55:49;;;;;;;1.77;0.40;;;20.30;50.50;;;;;;5061186;28;20025;-51
2023/12/25 07:58:15;;;;;;;0.63;0.30;;;20.30;50.50;;;;;;5057807;28;20066;-53
2023/12/25 08:00:43;;;;;;;0.38;0.20;;;20.30;50.50;;;;;;5058654;28;20017;-55
2023/12/25 08:03:10;;;;;;;1.45;0.40;;;20.30;50.50;;;;;;5052910;28;20360;-54
2023/12/25 08:05:36;;;;;;;1.05;0.28;;;20.30;50.40;;;;;;5060545;28;20031;-55
2023/12/25 08:08:05;;;;;;;1.33;0.28;;;20.30;50.40;;;;;;5057068;28;20033;-55
2023/12/25 08:10:31;;;;;;;0.57;0.32;;;20.30;51.00;;;;;;5040086;28;20533;-54
2023/12/25 08:12:58;;;;;;;0.50;0.30;;;20.30;50.40;;;;;;5054916;28;20111;-54
2023/12/25 08:15:25;;;;;;;0.17;0.15;;;20.30;50.30;;;;;;5061191;28;20047;-54
2023/12/25 08:17:52;;;;;;;0.43;0.20;;;20.30;50.30;;;;;;5055816;28;20024;-50
2023/12/25 08:20:18;;;;;;;0.40;0.20;;;20.30;50.30;;;;;;5060800;28;20044;-50
2023/12/25 08:22:44;;;;;;;0.40;0.20;;;20.20;50.20;;;;;;5050736;28;20021;-54
2023/12/25 08:25:10;;;;;;;1.08;0.40;;;20.30;50.20;;;;;;5053769;28;20028;-52
2023/12/25 08:27:36;;;;;;;1.23;0.50;;;20.30;50.20;;;;;;5053379;28;20112;-52
2023/12/25 08:30:03;;;;;;;0.82;0.30;;;20.20;50.10;;;;;;5054181;28;20029;-53
2023/12/25 08:32:29;;;;;;;0.63;0.20;;;20.20;50.10;;;;;;5035989;28;20024;-49
2023/12/25 08:34:55;;;;;;;1.75;0.45;;;20.20;50.10;;;;;;5053772;28;20048;-54
2023/12/25 08:37:21;;;;;;;0.80;0.30;;;20.30;50.10;;;;;;5052877;28;20447;-51
2023/12/25 08:39:47;;;;;;;0.40;0.20;;;20.20;50.10;;;;;;5054080;28;20056;-52
2023/12/25 08:42:13;;;;;;;0.63;0.30;;;20.20;50.10;;;;;;5053831;28;20025;-54
2023/12/25 08:44:39;;;;;;;1.05;0.38;;;20.20;50.10;;;;;;5035696;28;20049;-51
2023/12/25 08:47:05;;;;;;;0.80;0.30;;;20.20;50.10;;;;;;5053944;28;20108;-52
2023/12/25 08:49:31;;;;;;;1.42;0.30;;;20.20;50.10;;;;;;5053721;28;20025;-53
2023/12/25 08:51:58;;;;;;;0.75;0.30;;;20.20;50.10;;;;;;5052949;28;20036;-50
2023/12/25 08:54:24;;;;;;;1.25;0.38;;;20.20;50.10;;;;;;5053478;28;20029;-53
2023/12/25 08:56:50;;;;;;;0.40;0.10;;;20.20;50.10;;;;;;5053089;28;20025;-53
2023/12/25 08:59:17;;;;;;;0.55;0.20;;;20.20;50.00;;;;;;5053356;28;20021;-54
2023/12/25 09:01:43;;;;;;;0.98;0.30;;;20.20;50.10;;;;;;5051483;28;20071;-53
2023/12/25 09:04:09;;;;;;;0.70;0.40;;;20.20;50.10;;;;;;5052076;28;20039;-55
2023/12/25 09:06:35;;;;;;;0.90;0.43;;;20.20;50.10;;;;;;5048539;28;20025;-54
2023/12/25 09:09:01;;;;;;;0.73;0.30;;;20.20;50.10;;;;;;5046864;28;20111;-55
2023/12/25 09:11:27;;;;;;;0.70;0.35;;;20.20;50.10;;;;;;5044387;28;20095;-52
2023/12/25 09:13:53;;;;;;;0.77;0.47;;;20.30;50.20;;;;;;5051162;28;20049;-52
2023/12/25 09:16:19;;;;;;;2.63;0.40;;;20.30;50.10;;;;;;5055601;28;20025;-53
2023/12/25 09:18:45;;;;;;;0.35;0.20;;;20.30;50.10;;;;;;5055596;28;20042;-53
2023/12/25 09:21:11;;;;;;;0.82;0.32;;;20.40;50.10;;;;;;5039014;28;20025;-51
2023/12/25 09:23:37;;;;;;;0.73;0.30;;;20.40;50.00;;;;;;5057242;28;20456;-53
2023/12/25 09:26:03;;;;;;;0.75;0.25;;;20.40;49.90;;;;;;5056557;28;20104;-54
2023/12/25 09:28:29;;;;;;;0.75;0.40;;;20.50;49.80;;;;;;5055647;28;20028;-50
2023/12/25 09:30:56;;;;;;;1.25;0.40;;;20.60;49.70;;;;;;5056436;28;20035;-50
2023/12/25 09:33:22;;;;;;;1.20;0.30;;;20.60;49.60;;;;;;5039202;28;20471;-52
2023/12/25 09:35:47;;;;;;;0.32;0.30;;;20.70;49.50;;;;;;5056151;28;20033;-50
2023/12/25 09:38:13;;;;;;;0.55;0.30;;;20.80;49.40;;;;;;5055718;28;20375;-55
2023/12/25 09:40:39;;;;;;;1.15;0.40;;;20.90;49.30;;;;;;5056341;28;20029;-55
2023/12/25 09:43:05;;;;;;;0.82;0.40;;;20.90;49.20;;;;;;5055555;28;20408;-51
2023/12/25 09:45:37;;;;;;;0.82;0.50;;;21.00;49.10;;;;;;5056609;28;20032;-54
2023/12/25 09:48:05;;;;;;;0.52;0.22;;;21.10;49.00;;;;;;5056261;28;20082;-52
2023/12/25 09:50:31;;;;;;;0.40;0.30;;;21.10;48.90;;;;;;5056792;28;20020;-51
2023/12/25 09:52:57;;;;;;;1.25;0.38;;;21.20;48.90;;;;;;5055598;28;20040;-54
2023/12/25 09:55:25;;;;;;;0.30;0.30;;;21.30;48.80;;;;;;5056923;28;20043;-51
2023/12/25 09:57:51;;;;;;;1.15;0.40;;;21.30;48.70;;;;;;5038135;28;20029;-55
2023/12/25 10:00:19;;;;;;;2.00;0.57;;;21.40;48.60;;;;;;5053877;28;20436;-49
2023/12/25 10:02:49;;;;;;;0.40;0.28;;;21.50;48.60;;;;;;5055446;28;20028;-54
2023/12/25 10:05:16;;;;;;;0.68;0.28;;;21.50;48.50;;;;;;5035077;28;20021;-51
2023/12/25 10:07:43;;;;;;;0.63;0.30;;;21.60;48.40;;;;;;5038952;28;20408;-53
2023/12/25 10:10:09;;;;;;;0.52;0.32;;;21.70;48.40;;;;;;5055945;28;20105;-53
2023/12/25 10:12:36;;;;;;;0.20;0.20;;;21.70;48.20;;;;;;5057542;28;20039;-52
2023/12/25 10:15:04;;;;;;;0.52;0.25;;;21.70;48.20;;;;;;5039669;28;20037;-50
2023/12/25 10:17:29;;;;;;;0.70;0.30;;;21.80;48.20;;;;;;5057397;28;20414;-55
2023/12/25 10:19:55;;;;;;;0.93;0.32;;;21.80;48.20;;;;;;5057071;28;20033;-56
2023/12/25 10:22:32;;;;;;;1.27;0.30;;;22.00;48.10;;;;;;5040911;28;20102;-52
2023/12/25 10:25:07;;;;;;;1.00;0.57;;;22.10;47.90;;;;;;5040060;28;20111;-51
2023/12/25 10:27:43;;;;;;;2.45;0.32;;;22.20;47.70;;;;;;5057775;28;20028;-51
2023/12/25 10:30:20;;;;;;;1.00;0.43;;;22.30;47.50;;;;;;5056445;28;20529;-46
2023/12/25 10:32:47;;;;;;;1.27;0.40;;;22.50;47.40;;;;;;5057165;28;20033;-47
2023/12/25 10:35:18;;;;;;;0.90;0.38;;;22.60;47.80;;;;;;5056964;28;20029;-55
2023/12/25 10:37:45;;;;;;;0.90;0.40;;;22.60;47.10;;;;;;5056835;28;20458;-53
2023/12/25 10:40:18;;;;;;;1.00;0.40;;;22.70;47.00;;;;;;5057287;28;20056;-59
2023/12/25 10:42:47;;;;;;;0.50;0.40;;;22.80;46.90;;;;;;5057628;28;20122;-58
2023/12/25 10:45:21;;;;;;;1.25;0.55;;;22.80;46.80;;;;;;5057354;28;20108;-58
2023/12/25 10:47:52;;;;;;;0.45;0.30;;;22.90;46.70;;;;;;5039093;28;20087;-56
2023/12/25 10:50:20;;;;;;;1.30;0.50;;;23.00;46.60;;;;;;5056632;28;20036;-49
2023/12/25 10:52:52;;;;;;;0.77;0.43;;;23.00;46.50;;;;;;5054819;28;20090;-57
2023/12/25 10:55:31;;;;;;;0.88;0.40;;;23.10;46.40;;;;;;5056760;28;20418;-55
2023/12/25 10:57:57;;;;;;;0.47;0.40;;;23.10;46.30;;;;;;5056810;28;20104;-54
2023/12/25 11:00:23;;;;;;;0.47;0.43;;;23.10;46.30;;;;;;5056981;28;20035;-55
2023/12/25 11:02:53;;;;;;;0.77;0.30;;;23.10;46.20;;;;;;5056257;28;20087;-54
2023/12/25 11:05:20;;;;;;;0.50;0.30;;;23.20;46.20;;;;;;5056524;28;20033;-55
2023/12/25 11:07:46;;;;;;;0.77;0.47;;;23.20;46.10;;;;;;5053981;28;20072;-57
2023/12/25 11:10:13;;;;;;;0.90;0.45;;;23.20;46.00;;;;;;5038999;28;20410;-60
2023/12/25 11:12:39;;;;;;;0.73;0.40;;;23.20;45.90;;;;;;5039046;28;20040;-56
2023/12/25 11:15:06;;;;;;;1.80;0.63;;;23.30;45.90;;;;;;5056547;28;20028;-53
2023/12/25 11:17:34;;;;;;;0.73;0.50;;;23.30;45.90;;;;;;5056554;28;20036;-54
2023/12/25 11:20:03;;;;;;;0.60;0.25;;;23.30;45.80;;;;;;5056263;28;20428;-58
2023/12/25 11:22:33;;;;;;;1.92;0.30;;;23.30;45.80;;;;;;5052012;28;20099;-57
2023/12/25 11:25:02;;;;;;;1.13;0.45;;;23.20;45.80;;;;;;5061772;28;20020;-54
2023/12/25 11:27:29;;;;;;;0.50;0.30;;;23.10;45.90;;;;;;5060257;28;20037;-55
2023/12/25 11:30:07;;;;;;;1.10;0.40;;;23.10;46.10;;;;;;5057459;28;20029;-55
2023/12/25 11:32:35;;;;;;;2.42;0.50;;;23.00;46.10;;;;;;5072264;28;20028;-56
2023/12/25 11:35:01;;;;;;;1.10;0.50;;;22.90;46.20;;;;;;5070516;28;20368;-57
2023/12/25 11:37:28;;;;;;;3.25;0.50;;;22.80;46.20;;;;;;5056585;28;20021;-58
2023/12/25 11:40:01;;;;;;;1.40;0.40;;;22.80;46.20;;;;;;5052174;28;20119;-59
2023/12/25 11:42:27;;;;;;;0.90;0.50;;;22.70;46.20;;;;;;5055860;28;20504;-56
2023/12/25 11:45:00;;;;;;;1.08;0.50;;;22.70;46.20;;;;;;5039282;28;20060;-54
2023/12/25 11:47:29;;;;;;;1.05;0.50;;;22.60;46.20;;;;;;5060452;28;20049;-56
2023/12/25 11:49:57;;;;;;;2.13;0.73;;;22.60;46.20;;;;;;5055726;28;20100;-55
2023/12/25 11:52:45;;;;;;;1.65;0.60;;;22.50;46.20;;;;;;5057584;28;20025;-53
2023/12/25 11:55:19;;;;;;;1.27;0.70;;;22.50;46.10;;;;;;5055445;28;20035;-56
2023/12/25 11:57:45;;;;;;;2.13;0.60;;;22.40;46.10;;;;;;5055276;28;20470;-54
2023/12/25 12:00:26;;;;;;;1.33;0.60;;;22.40;46.10;;;;;;5063587;28;20337;-58
2023/12/25 12:02:52;;;;;;;1.13;0.40;;;22.40;46.10;;;;;;5055524;28;20029;-57
2023/12/25 12:05:19;;;;;;;0.90;0.50;;;22.30;46.10;;;;;;5055642;28;20032;-55
2023/12/25 12:07:45;;;;;;;0.95;0.60;;;22.30;46.60;;;;;;5059257;28;20024;-54
2023/12/25 12:10:12;;;;;;;2.08;0.30;;;22.30;46.10;;;;;;5035446;28;20021;-56
2023/12/25 12:12:39;;;;;;;0.75;0.40;;;22.30;46.00;;;;;;5058245;28;20059;-60
2023/12/25 12:15:06;;;;;;;1.35;0.43;;;22.30;46.00;;;;;;5037512;28;20352;-56
2023/12/25 12:17:34;;;;;;;1.42;0.50;;;22.20;46.00;;;;;;5040145;28;21363;-55
2023/12/25 12:20:00;;;;;;;0.65;0.38;;;22.20;46.00;;;;;;5060689;28;20020;-58
2023/12/25 12:22:26;;;;;;;0.77;0.40;;;22.20;46.10;;;;;;5035358;28;20025;-57
2023/12/25 12:24:52;;;;;;;1.05;0.43;;;22.20;46.10;;;;;;5038437;28;20039;-58
2023/12/25 12:27:21;;;;;;;1.92;0.22;;;22.20;46.10;;;;;;5057681;28;20043;-58
2023/12/25 12:29:50;;;;;;;0.60;0.40;;;22.10;46.10;;;;;;5037801;28;20093;-58
2023/12/25 12:32:17;;;;;;;1.02;0.40;;;22.10;46.10;;;;;;5036762;28;20325;-56
2023/12/25 12:34:43;;;;;;;0.52;0.38;;;22.10;46.10;;;;;;5066494;28;20388;-57
2023/12/25 12:37:10;;;;;;;0.90;0.47;;;22.10;46.10;;;;;;5038629;28;20352;-55
2023/12/25 12:39:36;;;;;;;0.47;0.30;;;22.10;46.10;;;;;;5053938;28;20375;-51
2023/12/25 12:42:09;;;;;;;1.00;0.40;;;22.10;46.10;;;;;;5055082;28;20029;-56
2023/12/25 12:44:35;;;;;;;0.50;0.40;;;22.10;46.10;;;;;;5059808;28;20098;-58